Time;durP1;ratioP1;P1;durP2;ratioP2;P2;SDS_P1;SDS_P2;PMS_P1;PMS_P2;Temp;Humidity;BMP_temperature;BMP_pressure;BME280_temperature;BME280_humidity;BME280_pressure;Samples;Min_cycle;Max_cycle;Signal;HPM_P1;HPM_P2
2022/11/20 00:00:54;;;;;;;2.67;1.45;;;6.70;99.90;;;;;;5033177;28;20152;-76
2022/11/20 00:03:23;;;;;;;2.35;1.27;;;6.70;99.90;;;;;;5030618;28;20453;-75
2022/11/20 00:05:49;;;;;;;4.07;1.35;;;6.70;99.90;;;;;;5034449;28;20025;-75
2022/11/20 00:08:17;;;;;;;2.83;1.63;;;6.60;99.90;;;;;;5032243;28;20521;-75
2022/11/20 00:10:43;;;;;;;4.43;1.88;;;6.60;99.90;;;;;;5036331;28;20104;-74
2022/11/20 00:13:08;;;;;;;2.78;1.35;;;6.60;99.90;;;;;;5035672;28;20061;-75
2022/11/20 00:15:34;;;;;;;2.78;1.27;;;6.50;99.90;;;;;;5032078;28;20089;-74
2022/11/20 00:18:03;;;;;;;3.10;1.38;;;6.50;99.90;;;;;;5028559;28;20037;-75
2022/11/20 00:20:29;;;;;;;3.33;1.75;;;6.50;99.90;;;;;;5037386;28;20030;-74
2022/11/20 00:22:54;;;;;;;2.80;1.60;;;6.50;99.90;;;;;;5035657;28;20025;-75
2022/11/20 00:25:20;;;;;;;4.25;1.88;;;6.50;99.90;;;;;;5034304;28;20382;-75
2022/11/20 00:27:45;;;;;;;3.22;1.60;;;6.40;99.90;;;;;;5019984;28;20037;-75
2022/11/20 00:30:14;;;;;;;2.72;1.85;;;6.40;99.90;;;;;;5030953;28;20034;-75
2022/11/20 00:32:39;;;;;;;4.00;1.38;;;6.30;99.90;;;;;;5023025;28;20034;-75
2022/11/20 00:35:05;;;;;;;3.10;1.70;;;6.30;99.90;;;;;;5027494;28;20033;-75
2022/11/20 00:37:34;;;;;;;4.07;2.10;;;6.30;99.90;;;;;;5031960;28;20055;-75
2022/11/20 00:39:59;;;;;;;2.58;1.60;;;6.30;99.90;;;;;;5019538;28;20034;-74
2022/11/20 00:42:25;;;;;;;5.35;2.00;;;6.20;99.90;;;;;;5026958;28;20028;-76
2022/11/20 00:44:50;;;;;;;3.00;1.83;;;6.20;99.90;;;;;;5026040;28;20029;-75
2022/11/20 00:47:16;;;;;;;2.50;1.70;;;6.20;99.90;;;;;;5036413;28;20520;-76
2022/11/20 00:49:42;;;;;;;4.63;2.22;;;6.20;99.90;;;;;;5035554;28;20494;-75
2022/11/20 00:52:10;;;;;;;4.20;2.42;;;6.10;99.90;;;;;;5036464;28;20021;-75
2022/11/20 00:54:36;;;;;;;3.50;1.85;;;6.10;99.90;;;;;;5034953;28;20449;-75
2022/11/20 00:57:01;;;;;;;4.47;2.50;;;6.10;99.90;;;;;;5018307;28;20029;-75
2022/11/20 00:59:30;;;;;;;3.90;2.67;;;6.10;99.90;;;;;;5036942;28;20021;-75
2022/11/20 01:01:56;;;;;;;5.20;2.30;;;6.10;99.90;;;;;;5029975;28;20387;-75
2022/11/20 01:04:24;;;;;;;4.72;2.65;;;6.10;99.90;;;;;;5014466;28;20025;-73
2022/11/20 01:06:50;;;;;;;6.00;2.80;;;6.00;99.90;;;;;;5022150;28;20164;-74
2022/11/20 01:09:15;;;;;;;4.00;2.30;;;6.00;99.90;;;;;;5025239;28;20057;-74
2022/11/20 01:11:45;;;;;;;6.00;2.42;;;6.00;99.90;;;;;;5027390;28;20480;-74
2022/11/20 01:14:14;;;;;;;4.82;2.47;;;5.90;99.90;;;;;;5031335;28;20054;-74
2022/11/20 01:16:45;;;;;;;3.92;2.50;;;5.90;99.90;;;;;;5017598;28;20054;-74
2022/11/20 01:19:14;;;;;;;3.78;2.17;;;5.90;99.90;;;;;;5016060;28;20378;-74
2022/11/20 01:21:44;;;;;;;6.05;2.50;;;5.90;99.90;;;;;;5016283;28;20061;-74
2022/11/20 01:24:15;;;;;;;6.93;2.97;;;5.90;99.90;;;;;;5024860;28;20037;-74
2022/11/20 01:26:43;;;;;;;2.88;2.10;;;5.80;99.90;;;;;;5013450;28;20026;-74
2022/11/20 01:29:18;;;;;;;3.92;2.28;;;5.80;99.90;;;;;;5029170;28;20029;-74
2022/11/20 01:31:44;;;;;;;3.10;2.30;;;5.80;99.90;;;;;;5024745;28;20113;-74
2022/11/20 01:34:16;;;;;;;5.40;2.65;;;5.80;99.90;;;;;;5028370;28;20075;-76
2022/11/20 01:36:42;;;;;;;4.28;2.40;;;5.80;99.90;;;;;;5033193;28;20109;-76
2022/11/20 01:39:14;;;;;;;7.18;3.00;;;5.70;99.90;;;;;;5024089;28;20385;-76
2022/11/20 01:44:53;;;;;;;5.53;2.70;;;5.70;99.90;;;;;;5028078;28;20031;-75
2022/11/20 01:47:37;;;;;;;3.80;2.42;;;5.70;99.90;;;;;;5031316;28;20572;-76
2022/11/20 01:50:28;;;;;;;5.63;2.67;;;5.70;99.90;;;;;;5026256;28;20117;-77
2022/11/20 01:53:04;;;;;;;5.07;2.67;;;5.70;99.90;;;;;;5027750;28;20041;-76
2022/11/20 01:55:44;;;;;;;3.30;2.30;;;5.70;99.90;;;;;;5029786;28;20555;-76
2022/11/20 01:58:10;;;;;;;5.22;2.35;;;5.60;99.90;;;;;;5039282;28;20474;-75
2022/11/20 02:00:35;;;;;;;6.05;2.47;;;5.60;99.90;;;;;;5029761;28;20025;-76
2022/11/20 02:03:05;;;;;;;3.03;2.22;;;5.60;99.90;;;;;;5029260;28;20037;-77
2022/11/20 02:05:40;;;;;;;4.70;2.38;;;5.60;99.90;;;;;;5029367;28;20037;-76
2022/11/20 02:08:06;;;;;;;4.45;2.63;;;5.60;99.90;;;;;;5027220;28;20056;-77
2022/11/20 02:10:33;;;;;;;5.88;2.45;;;5.60;99.90;;;;;;5029221;28;20080;-76
2022/11/20 02:15:43;;;;;;;;;;;5.50;99.90;;;;;;5029554;28;20521;-76
2022/11/20 02:18:10;;;;;;;2.95;1.88;;;5.50;99.90;;;;;;5027537;28;19909;-76
2022/11/20 02:20:36;;;;;;;3.88;2.10;;;5.50;99.90;;;;;;5028958;28;20092;-76
2022/11/20 02:23:30;;;;;;;3.20;1.73;;;5.50;99.90;;;;;;5027062;28;20033;-76
2022/11/20 02:25:56;;;;;;;2.80;1.85;;;5.50;99.90;;;;;;5032177;28;20033;-76
2022/11/20 02:28:26;;;;;;;3.17;2.08;;;5.60;99.90;;;;;;5022727;28;20502;-77
2022/11/20 02:30:54;;;;;;;3.10;1.95;;;5.60;99.90;;;;;;5026492;28;20116;-77
2022/11/20 02:33:23;;;;;;;2.78;1.42;;;5.70;99.90;;;;;;5027115;28;20104;-77
2022/11/20 02:35:51;;;;;;;3.78;1.50;;;5.70;99.90;;;;;;5027563;28;20359;-76
2022/11/20 02:38:20;;;;;;;3.08;1.58;;;5.80;99.90;;;;;;5026337;28;20022;-76
2022/11/20 02:40:49;;;;;;;2.53;1.30;;;5.80;99.90;;;;;;5025767;28;20044;-76
2022/11/20 02:43:15;;;;;;;3.17;1.60;;;5.80;99.90;;;;;;5028013;28;20033;-76
2022/11/20 02:45:41;;;;;;;4.38;1.40;;;5.90;99.90;;;;;;5027897;28;20055;-76
2022/11/20 02:48:10;;;;;;;2.22;1.38;;;5.90;99.90;;;;;;5029024;28;20558;-76
2022/11/20 02:50:42;;;;;;;1.90;1.20;;;5.90;99.90;;;;;;5030352;28;20037;-77
2022/11/20 02:53:08;;;;;;;2.42;1.35;;;6.00;99.90;;;;;;5030633;28;20473;-76
2022/11/20 02:55:33;;;;;;;2.35;1.58;;;6.00;99.90;;;;;;5030100;28;20055;-76
2022/11/20 02:57:59;;;;;;;4.65;1.50;;;6.00;99.90;;;;;;5030788;28;20030;-76
2022/11/20 03:00:25;;;;;;;3.45;1.50;;;6.10;99.90;;;;;;5043164;28;20036;-76
2022/11/20 03:02:53;;;;;;;2.33;1.33;;;6.10;99.90;;;;;;5050288;28;20029;-77
2022/11/20 03:05:18;;;;;;;2.63;1.27;;;6.10;99.90;;;;;;5027669;28;20080;-76
2022/11/20 03:07:47;;;;;;;4.90;1.70;;;6.10;99.90;;;;;;5036209;28;20478;-76
2022/11/20 03:10:13;;;;;;;3.60;1.52;;;6.10;99.90;;;;;;5039466;28;20049;-77
2022/11/20 03:12:45;;;;;;;2.88;1.08;;;6.10;99.90;;;;;;5029606;28;20018;-76
2022/11/20 03:15:11;;;;;;;2.40;1.60;;;6.10;99.90;;;;;;5024599;28;20041;-76
2022/11/20 03:17:36;;;;;;;3.67;1.30;;;6.10;99.90;;;;;;5031905;28;20026;-76
2022/11/20 03:20:02;;;;;;;2.50;1.42;;;6.10;99.90;;;;;;5024850;28;20029;-76
2022/11/20 03:22:29;;;;;;;1.85;1.05;;;6.10;99.90;;;;;;5032865;28;20057;-75
2022/11/20 03:24:55;;;;;;;1.83;1.30;;;6.10;99.90;;;;;;5030308;28;20026;-76
2022/11/20 03:27:26;;;;;;;2.35;1.30;;;6.10;99.90;;;;;;5028781;28;20030;-76
2022/11/20 03:29:52;;;;;;;4.40;1.90;;;6.10;99.90;;;;;;5032284;28;20061;-76
2022/11/20 03:32:21;;;;;;;4.63;1.55;;;6.10;99.90;;;;;;5025517;28;20483;-75
2022/11/20 03:34:46;;;;;;;2.85;1.38;;;6.10;99.90;;;;;;5018935;28;20017;-76
2022/11/20 03:37:15;;;;;;;4.22;1.33;;;6.10;99.90;;;;;;5030985;28;20040;-76
2022/11/20 03:39:49;;;;;;;2.97;1.02;;;6.10;99.90;;;;;;5030956;28;20033;-76
2022/11/20 03:44:59;;;;;;;3.13;1.17;;;6.10;99.90;;;;;;5025741;28;20060;-76
2022/11/20 03:47:25;;;;;;;2.35;1.15;;;6.10;99.90;;;;;;5025741;28;20041;-76
2022/11/20 03:49:50;;;;;;;2.70;1.27;;;6.10;99.90;;;;;;5025658;28;20083;-76
2022/11/20 03:52:16;;;;;;;7.13;1.80;;;6.00;99.90;;;;;;5018989;28;20033;-76
2022/11/20 03:54:44;;;;;;;2.65;1.27;;;6.00;99.90;;;;;;5029266;28;20084;-76
2022/11/20 03:57:10;;;;;;;2.90;0.90;;;6.00;99.90;;;;;;5025125;28;20033;-76
2022/11/20 03:59:36;;;;;;;5.07;1.30;;;6.10;99.90;;;;;;5027278;28;20487;-76
2022/11/20 04:02:01;;;;;;;2.53;1.40;;;6.10;99.90;;;;;;5029461;28;20379;-76
2022/11/20 04:04:27;;;;;;;1.98;1.00;;;6.10;99.90;;;;;;5023700;28;20060;-77
2022/11/20 04:06:52;;;;;;;3.05;1.10;;;6.10;99.90;;;;;;5027851;28;20490;-76
2022/11/20 04:09:18;;;;;;;3.15;1.48;;;6.10;99.90;;;;;;5026365;28;20523;-76
2022/11/20 04:11:49;;;;;;;3.20;1.30;;;6.20;99.90;;;;;;5026153;28;20536;-76
2022/11/20 04:14:16;;;;;;;1.52;1.00;;;6.20;99.90;;;;;;5033799;28;20470;-76
2022/11/20 04:16:42;;;;;;;3.17;1.10;;;6.20;99.90;;;;;;5032119;28;20056;-76
2022/11/20 04:19:20;;;;;;;1.88;1.05;;;6.20;99.90;;;;;;5028212;28;20061;-76
2022/11/20 04:21:45;;;;;;;3.65;1.60;;;6.20;99.90;;;;;;5026007;28;20033;-76
2022/11/20 04:24:14;;;;;;;3.55;1.27;;;6.20;99.90;;;;;;5031092;28;20032;-76
2022/11/20 04:26:39;;;;;;;1.90;1.10;;;6.20;99.90;;;;;;5030239;28;20490;-76
2022/11/20 04:29:05;;;;;;;1.65;0.85;;;6.30;99.90;;;;;;5029683;28;20093;-74
2022/11/20 04:31:33;;;;;;;2.13;0.93;;;6.30;99.90;;;;;;5026325;28;20068;-77
2022/11/20 04:34:01;;;;;;;3.13;0.88;;;6.30;99.90;;;;;;5028351;28;20052;-76
2022/11/20 04:36:28;;;;;;;3.28;1.15;;;6.30;99.90;;;;;;5030398;28;20087;-77
2022/11/20 04:38:55;;;;;;;2.03;1.17;;;6.40;99.90;;;;;;5023925;28;20052;-77
2022/11/20 04:41:23;;;;;;;1.67;0.80;;;6.30;99.90;;;;;;5032947;28;20029;-77
2022/11/20 04:43:51;;;;;;;2.83;1.20;;;6.40;99.90;;;;;;5027964;28;20036;-77
2022/11/20 04:46:18;;;;;;;2.38;0.98;;;6.40;99.90;;;;;;5028979;28;20025;-77
2022/11/20 04:48:50;;;;;;;1.77;0.98;;;6.40;99.90;;;;;;5032342;28;20037;-78
2022/11/20 04:51:18;;;;;;;1.98;0.88;;;6.40;99.90;;;;;;5030295;28;20036;-77
2022/11/20 04:53:47;;;;;;;1.60;1.02;;;6.40;99.90;;;;;;5040500;28;20030;-78
2022/11/20 04:56:13;;;;;;;1.58;0.88;;;6.40;99.90;;;;;;5027159;28;20076;-77
2022/11/20 04:58:45;;;;;;;4.30;1.05;;;6.40;99.90;;;;;;5041537;28;20120;-77
2022/11/20 05:01:16;;;;;;;1.75;0.98;;;6.40;99.90;;;;;;5025037;28;20479;-78
2022/11/20 05:03:43;;;;;;;1.58;0.77;;;6.50;99.90;;;;;;5030625;28;20025;-77
2022/11/20 05:06:15;;;;;;;2.22;1.00;;;6.50;99.90;;;;;;5038723;28;20025;-77
2022/11/20 05:08:44;;;;;;;1.42;0.98;;;6.40;99.90;;;;;;5025160;28;20104;-77
2022/11/20 05:11:15;;;;;;;2.17;1.00;;;6.50;99.90;;;;;;5026660;28;20026;-77
2022/11/20 05:13:41;;;;;;;2.47;0.85;;;6.50;99.90;;;;;;5027111;28;20080;-77
2022/11/20 05:16:21;;;;;;;2.90;0.80;;;6.50;99.90;;;;;;5032909;28;20033;-77
2022/11/20 05:18:47;;;;;;;2.50;0.80;;;6.50;99.90;;;;;;5029429;28;20534;-76
2022/11/20 05:21:13;;;;;;;3.42;1.05;;;6.40;99.90;;;;;;5033605;28;20135;-76
2022/11/20 05:23:44;;;;;;;2.22;0.80;;;6.50;99.90;;;;;;5034854;28;20103;-76
2022/11/20 05:26:18;;;;;;;2.30;0.82;;;6.50;99.90;;;;;;5022120;28;20026;-76
2022/11/20 05:28:48;;;;;;;5.30;0.90;;;6.50;99.90;;;;;;5017973;28;20026;-77
2022/11/20 05:31:20;;;;;;;3.70;0.90;;;6.50;99.90;;;;;;5026638;28;20500;-77
2022/11/20 05:33:46;;;;;;;2.83;1.23;;;6.50;99.90;;;;;;5031237;28;20032;-76
2022/11/20 05:36:18;;;;;;;1.20;0.80;;;6.50;99.90;;;;;;5032552;28;20026;-75
2022/11/20 05:38:44;;;;;;;3.35;1.70;;;6.50;99.90;;;;;;5027050;28;20022;-75
2022/11/20 05:41:16;;;;;;;1.15;0.68;;;6.50;99.90;;;;;;5032935;28;20067;-77
2022/11/20 05:43:43;;;;;;;5.07;0.70;;;6.40;99.90;;;;;;5034573;28;20025;-76
2022/11/20 05:46:11;;;;;;;2.40;0.90;;;6.40;99.90;;;;;;5034604;28;20490;-76
2022/11/20 05:48:38;;;;;;;1.92;0.75;;;6.40;99.90;;;;;;5034408;28;20025;-76
2022/11/20 05:51:13;;;;;;;2.72;0.88;;;6.40;99.90;;;;;;5033157;28;20034;-76
2022/11/20 05:53:45;;;;;;;1.17;0.70;;;6.40;99.90;;;;;;5034021;28;20624;-77
2022/11/20 05:56:13;;;;;;;1.05;0.55;;;6.40;99.90;;;;;;5028795;28;20030;-77
2022/11/20 05:58:46;;;;;;;3.35;0.95;;;6.40;99.90;;;;;;5032939;28;20029;-77
2022/11/20 06:01:21;;;;;;;1.80;1.08;;;6.40;99.90;;;;;;5031471;28;20033;-77
2022/11/20 06:03:50;;;;;;;2.58;1.17;;;6.40;99.90;;;;;;5028526;28;20479;-77
2022/11/20 06:06:20;;;;;;;2.90;0.98;;;6.40;99.90;;;;;;5025063;28;20040;-77
2022/11/20 06:08:46;;;;;;;3.08;1.00;;;6.40;99.90;;;;;;5029923;28;20428;-76
2022/11/20 06:11:13;;;;;;;2.08;0.90;;;6.40;99.90;;;;;;5027234;28;20072;-76
2022/11/20 06:13:42;;;;;;;3.83;1.02;;;6.40;99.90;;;;;;5028952;28;20045;-76
2022/11/20 06:16:11;;;;;;;2.95;1.40;;;6.40;99.90;;;;;;5027054;28;20052;-76
2022/11/20 06:18:40;;;;;;;3.20;1.17;;;6.40;99.90;;;;;;5028786;28;20029;-76
2022/11/20 06:21:12;;;;;;;3.10;1.60;;;6.30;99.90;;;;;;5026586;28;20029;-75
2022/11/20 06:23:39;;;;;;;2.30;1.00;;;6.40;99.90;;;;;;5027272;28;20029;-76
2022/11/20 06:26:22;;;;;;;1.55;0.90;;;6.30;99.90;;;;;;5033170;28;20029;-76
2022/11/20 06:28:48;;;;;;;2.47;1.40;;;6.30;99.90;;;;;;5027776;28;20025;-76
2022/11/20 06:31:25;;;;;;;3.13;1.45;;;6.30;99.90;;;;;;5023989;28;20036;-76
2022/11/20 06:33:51;;;;;;;3.60;1.25;;;6.30;99.90;;;;;;5028182;28;20029;-76
2022/11/20 06:36:22;;;;;;;2.72;1.58;;;6.30;99.90;;;;;;5026593;28;20057;-76
2022/11/20 06:38:48;;;;;;;1.40;0.85;;;6.30;99.90;;;;;;5025605;28;20072;-76
2022/11/20 06:41:19;;;;;;;5.20;1.27;;;6.30;99.90;;;;;;5028950;28;20044;-77
2022/11/20 06:43:51;;;;;;;1.67;1.00;;;6.30;99.90;;;;;;5025962;28;20026;-77
2022/11/20 06:46:20;;;;;;;1.52;0.98;;;6.20;99.90;;;;;;5033356;28;20040;-76
2022/11/20 06:48:47;;;;;;;2.28;0.93;;;6.30;99.90;;;;;;5022712;28;20049;-77
2022/11/20 06:51:16;;;;;;;2.95;1.33;;;6.20;99.90;;;;;;5033245;28;20054;-76
2022/11/20 06:53:42;;;;;;;1.58;1.08;;;6.30;99.90;;;;;;5023206;28;20037;-75
2022/11/20 06:56:10;;;;;;;3.67;1.30;;;6.20;99.90;;;;;;5025147;28;20040;-75
2022/11/20 06:58:36;;;;;;;1.40;0.82;;;6.20;99.90;;;;;;5025900;28;20038;-75
2022/11/20 07:01:08;;;;;;;2.63;1.30;;;6.20;99.90;;;;;;5022929;28;20080;-77
2022/11/20 07:03:34;;;;;;;3.67;1.00;;;6.20;99.90;;;;;;5024324;28;20032;-76
2022/11/20 07:06:01;;;;;;;2.45;1.27;;;6.20;99.90;;;;;;5028653;28;20030;-76
2022/11/20 07:08:33;;;;;;;1.85;1.00;;;6.30;99.90;;;;;;5023947;28;20060;-76
2022/11/20 07:11:11;;;;;;;1.70;0.90;;;6.30;99.90;;;;;;5026104;28;20073;-76
2022/11/20 07:13:37;;;;;;;3.88;1.23;;;6.30;99.90;;;;;;5025111;28;20025;-76
2022/11/20 07:16:06;;;;;;;2.53;1.35;;;6.20;99.90;;;;;;5025276;28;20026;-76
2022/11/20 07:18:31;;;;;;;1.73;0.80;;;6.30;99.90;;;;;;5027701;28;20119;-77
2022/11/20 07:21:04;;;;;;;2.05;1.20;;;6.30;99.90;;;;;;5025481;28;20108;-76
2022/11/20 07:23:29;;;;;;;2.28;0.90;;;6.30;99.90;;;;;;5024306;28;20037;-77
2022/11/20 07:25:55;;;;;;;4.65;1.17;;;6.30;99.90;;;;;;5026914;28;20191;-77
2022/11/20 07:28:20;;;;;;;2.17;0.85;;;6.30;99.90;;;;;;5020944;28;20088;-77
2022/11/20 07:30:53;;;;;;;1.67;0.75;;;6.30;99.90;;;;;;5024725;28;20030;-76
2022/11/20 07:33:22;;;;;;;1.73;0.80;;;6.40;99.90;;;;;;5024634;28;20031;-77
2022/11/20 07:35:47;;;;;;;2.47;1.25;;;6.40;99.90;;;;;;5024249;28;20021;-77
2022/11/20 07:38:13;;;;;;;1.60;0.80;;;6.40;99.90;;;;;;5029034;28;20040;-77
2022/11/20 07:40:39;;;;;;;2.95;1.05;;;6.40;99.90;;;;;;5030295;28;20040;-76
2022/11/20 07:43:04;;;;;;;2.22;0.98;;;6.50;99.90;;;;;;5028790;28;20482;-76
2022/11/20 07:45:36;;;;;;;0.93;0.60;;;6.50;99.90;;;;;;5024574;28;20476;-76
2022/11/20 07:48:04;;;;;;;2.30;0.95;;;6.50;99.90;;;;;;5029422;28;20025;-77
2022/11/20 07:50:30;;;;;;;0.90;0.57;;;6.50;99.90;;;;;;5034581;28;20037;-77
2022/11/20 07:53:04;;;;;;;1.65;0.63;;;6.50;99.90;;;;;;5035065;28;20026;-78
2022/11/20 07:55:29;;;;;;;;;;;6.50;99.90;;;;;;5027669;28;20045;-76
2022/11/20 07:57:56;;;;;;;1.38;0.70;;;6.50;99.90;;;;;;5030518;28;19909;-75
2022/11/20 08:00:22;;;;;;;1.92;0.60;;;6.60;99.90;;;;;;5027417;28;20046;-77
2022/11/20 08:02:51;;;;;;;1.80;0.70;;;6.60;99.90;;;;;;5033335;28;20022;-76
2022/11/20 08:05:17;;;;;;;1.25;0.70;;;6.60;99.90;;;;;;5031280;28;20421;-76
2022/11/20 08:07:43;;;;;;;1.85;1.00;;;6.60;99.90;;;;;;5034889;28;20036;-76
2022/11/20 08:10:15;;;;;;;1.95;0.93;;;6.70;99.90;;;;;;5031449;28;20509;-76
2022/11/20 08:15:35;;;;;;;2.20;0.60;;;6.70;99.90;;;;;;5030664;28;20031;-76
2022/11/20 08:18:05;;;;;;;1.52;0.70;;;6.80;99.90;;;;;;5034585;28;20033;-76
2022/11/20 08:20:31;;;;;;;3.05;0.80;;;6.80;99.90;;;;;;5028982;28;20034;-77
2022/11/20 08:23:02;;;;;;;1.38;0.80;;;6.80;99.90;;;;;;5035883;28;20090;-76
2022/11/20 08:25:29;;;;;;;2.70;0.70;;;6.90;99.90;;;;;;5030025;28;20029;-76
2022/11/20 08:27:58;;;;;;;1.20;0.60;;;6.90;99.90;;;;;;5026927;28;20087;-76
2022/11/20 08:30:24;;;;;;;4.78;0.73;;;6.90;99.90;;;;;;5025879;28;20029;-76
2022/11/20 08:32:49;;;;;;;1.13;0.55;;;6.90;99.90;;;;;;5029943;28;20029;-76
2022/11/20 08:35:22;;;;;;;1.15;0.80;;;6.90;99.90;;;;;;5034693;28;20029;-76
2022/11/20 08:37:48;;;;;;;2.20;0.82;;;6.90;99.90;;;;;;5029830;28;20026;-76
2022/11/20 08:40:16;;;;;;;1.25;0.73;;;7.00;99.90;;;;;;5026518;28;20040;-76
2022/11/20 08:42:49;;;;;;;1.25;0.85;;;7.00;99.90;;;;;;5031713;28;20763;-76
2022/11/20 08:45:16;;;;;;;2.83;0.77;;;7.00;99.90;;;;;;5027490;28;20041;-76
2022/11/20 08:47:42;;;;;;;2.60;0.90;;;7.00;99.90;;;;;;5019220;28;20820;-76
2022/11/20 08:50:09;;;;;;;1.50;0.80;;;7.00;99.90;;;;;;5031875;28;20106;-76
2022/11/20 08:52:38;;;;;;;1.17;0.60;;;7.10;99.90;;;;;;5029470;28;20025;-77
2022/11/20 08:55:10;;;;;;;1.20;0.70;;;7.10;99.90;;;;;;5028180;28;20130;-76
2022/11/20 08:57:39;;;;;;;2.95;0.73;;;7.10;99.90;;;;;;5030188;28;20036;-77
2022/11/20 09:00:10;;;;;;;1.90;0.70;;;7.20;99.90;;;;;;5027608;28;20091;-76
2022/11/20 09:02:36;;;;;;;1.20;0.70;;;7.20;99.90;;;;;;5027150;28;20038;-76
2022/11/20 09:05:02;;;;;;;2.30;0.70;;;7.20;99.90;;;;;;5027144;28;20032;-75
2022/11/20 09:07:28;;;;;;;1.73;0.80;;;7.20;99.90;;;;;;5028782;28;20041;-76
2022/11/20 09:09:53;;;;;;;1.48;0.60;;;7.20;99.90;;;;;;5029842;28;20033;-76
2022/11/20 09:12:19;;;;;;;2.72;0.80;;;7.30;99.90;;;;;;5024945;28;20026;-75
2022/11/20 09:14:45;;;;;;;1.20;0.77;;;7.30;99.90;;;;;;5034624;28;20024;-75
2022/11/20 09:17:13;;;;;;;1.95;0.40;;;7.30;99.90;;;;;;5022071;28;20065;-76
2022/11/20 09:19:39;;;;;;;1.08;0.70;;;7.30;99.90;;;;;;5029644;28;20029;-76
2022/11/20 09:22:06;;;;;;;1.02;0.43;;;7.30;99.90;;;;;;5030804;28;20018;-76
2022/11/20 09:24:31;;;;;;;0.88;0.45;;;7.30;99.90;;;;;;5030106;28;20029;-75
2022/11/20 09:26:57;;;;;;;0.90;0.50;;;7.40;99.90;;;;;;5028062;28;20045;-76
2022/11/20 09:29:23;;;;;;;1.13;0.60;;;7.30;99.90;;;;;;5019226;28;20045;-76
2022/11/20 09:31:48;;;;;;;0.88;0.60;;;7.30;99.90;;;;;;5025214;28;20025;-76
2022/11/20 09:34:14;;;;;;;1.20;0.73;;;7.40;99.90;;;;;;5029818;28;20433;-76
2022/11/20 09:36:39;;;;;;;1.50;0.75;;;7.30;99.90;;;;;;5031396;28;20241;-76
2022/11/20 09:39:05;;;;;;;3.33;0.55;;;7.30;99.90;;;;;;5021825;28;20025;-77
2022/11/20 09:41:43;;;;;;;1.63;0.70;;;7.30;99.90;;;;;;5022356;28;20025;-76
2022/11/20 09:44:43;;;;;;;1.33;0.77;;;7.30;99.90;;;;;;5026983;28;20071;-75
2022/11/20 09:47:16;;;;;;;2.60;0.60;;;7.30;99.90;;;;;;5018260;28;20029;-75
2022/11/20 09:50:06;;;;;;;1.55;0.60;;;7.30;99.90;;;;;;5028775;28;20100;-76
2022/11/20 09:52:38;;;;;;;1.20;0.68;;;7.20;99.90;;;;;;5021122;28;20072;-76
2022/11/20 09:55:07;;;;;;;1.15;0.70;;;7.30;99.90;;;;;;5025111;28;20398;-76
2022/11/20 09:57:40;;;;;;;1.27;0.50;;;7.30;99.90;;;;;;5025053;28;20482;-77
2022/11/20 10:00:12;;;;;;;1.27;0.80;;;7.30;99.90;;;;;;5025411;28;20386;-77
2022/11/20 10:03:00;;;;;;;2.75;0.98;;;7.20;99.90;;;;;;5015879;28;20034;-77
2022/11/20 10:05:38;;;;;;;1.63;0.77;;;7.20;99.90;;;;;;5028784;28;20025;-77
2022/11/20 10:08:10;;;;;;;1.17;0.73;;;7.30;99.90;;;;;;5023692;28;20033;-77
2022/11/20 10:10:49;;;;;;;1.55;0.85;;;7.30;99.90;;;;;;5014529;28;20536;-76
2022/11/20 10:13:44;;;;;;;0.55;0.55;;;7.30;99.90;;;;;;5025954;28;20033;-76
2022/11/20 10:16:47;;;;;;;1.35;0.70;;;7.30;99.90;;;;;;5007610;28;20037;-76
2022/11/20 10:19:31;;;;;;;1.67;0.90;;;7.30;99.90;;;;;;5024444;28;20025;-76
2022/11/20 10:22:31;;;;;;;3.72;0.80;;;7.30;99.90;;;;;;5027635;28;20086;-76
2022/11/20 10:25:08;;;;;;;2.42;0.60;;;7.30;99.90;;;;;;5024519;28;20277;-76
2022/11/20 10:27:36;;;;;;;4.03;0.80;;;7.30;99.90;;;;;;5027460;28;20425;-76
2022/11/20 10:30:09;;;;;;;1.73;0.85;;;7.30;99.90;;;;;;5022537;28;20443;-76
2022/11/20 10:32:43;;;;;;;1.30;0.80;;;7.30;99.90;;;;;;5024511;28;20360;-76
2022/11/20 10:35:18;;;;;;;;;;;7.30;99.90;;;;;;5027138;28;20026;-75
2022/11/20 10:37:53;;;;;;;1.02;0.70;;;7.30;99.90;;;;;;5026154;28;19909;-76
2022/11/20 10:40:30;;;;;;;0.82;0.68;;;7.30;99.90;;;;;;5028775;28;20029;-76
2022/11/20 10:43:08;;;;;;;1.00;0.73;;;7.30;99.90;;;;;;5026473;28;20025;-76
2022/11/20 10:46:00;;;;;;;1.30;0.82;;;7.30;99.90;;;;;;5031795;28;20025;-76
2022/11/20 10:48:28;;;;;;;1.73;0.70;;;7.30;99.90;;;;;;5023332;28;20032;-76
2022/11/20 10:51:06;;;;;;;1.65;0.90;;;7.40;99.90;;;;;;5022006;28;20030;-76
2022/11/20 10:53:47;;;;;;;1.33;0.82;;;7.40;99.90;;;;;;5024632;28;20022;-76
2022/11/20 10:56:19;;;;;;;1.27;0.68;;;7.40;99.90;;;;;;5023944;28;20036;-76
2022/11/20 10:59:11;;;;;;;1.75;0.98;;;7.40;99.90;;;;;;5022603;28;20036;-76
2022/11/20 11:01:43;;;;;;;1.42;0.77;;;7.50;99.90;;;;;;5019150;28;20044;-75
2022/11/20 11:04:31;;;;;;;3.13;1.05;;;7.50;99.90;;;;;;5021161;28;20033;-75
2022/11/20 11:07:09;;;;;;;1.30;0.80;;;7.50;99.90;;;;;;5028121;28;20037;-75
2022/11/20 11:09:41;;;;;;;3.22;1.00;;;7.60;99.90;;;;;;5024392;28;20032;-76
2022/11/20 11:12:11;;;;;;;3.25;1.02;;;7.60;99.90;;;;;;5018892;28;20030;-76
2022/11/20 11:14:53;;;;;;;1.67;1.02;;;7.60;99.90;;;;;;5023282;28;20068;-76
2022/11/20 11:17:27;;;;;;;2.15;0.82;;;7.70;99.90;;;;;;5026378;28;20121;-76
2022/11/20 11:20:10;;;;;;;2.45;1.20;;;7.70;99.90;;;;;;5021657;28;20017;-76
2022/11/20 11:22:48;;;;;;;2.40;1.40;;;7.70;99.90;;;;;;5025079;28;20037;-75
2022/11/20 11:25:39;;;;;;;1.80;1.20;;;7.60;99.90;;;;;;5033184;28;20032;-75
2022/11/20 11:28:17;;;;;;;4.82;1.40;;;7.70;99.90;;;;;;5026364;28;20514;-75
2022/11/20 11:30:44;;;;;;;5.43;1.48;;;7.80;99.90;;;;;;5022452;28;20029;-75
2022/11/20 11:33:18;;;;;;;1.60;0.98;;;7.80;99.90;;;;;;5026051;28;20025;-75
2022/11/20 11:35:58;;;;;;;1.42;0.77;;;7.90;99.90;;;;;;5031548;28;20470;-76
2022/11/20 11:38:32;;;;;;;1.50;0.85;;;8.00;99.90;;;;;;5031945;28;20048;-76
2022/11/20 11:40:58;;;;;;;2.03;0.80;;;8.10;99.90;;;;;;5028660;28;20135;-76
2022/11/20 11:46:32;;;;;;;2.97;0.70;;;8.20;99.90;;;;;;5032673;28;20076;-78
2022/11/20 11:49:18;;;;;;;1.83;1.00;;;8.20;99.90;;;;;;5020216;28;20092;-76
2022/11/20 11:52:01;;;;;;;2.15;0.90;;;8.40;99.90;;;;;;5026558;28;20021;-76
2022/11/20 11:54:55;;;;;;;1.05;0.70;;;8.40;99.90;;;;;;5033445;22;20141;-78
2022/11/20 11:57:34;;;;;;;1.92;0.82;;;8.40;99.90;;;;;;5033282;28;20034;-77
2022/11/20 12:00:13;;;;;;;2.58;0.68;;;8.50;99.90;;;;;;5029319;28;20124;-78
2022/11/20 12:02:45;;;;;;;0.77;0.55;;;8.50;99.90;;;;;;5049944;28;20036;-78
2022/11/20 12:05:27;;;;;;;1.08;0.70;;;8.50;99.90;;;;;;5030582;28;20041;-77
2022/11/20 12:08:25;;;;;;;0.80;0.60;;;8.50;99.90;;;;;;5030452;28;20083;-78
2022/11/20 12:11:15;;;;;;;1.17;0.63;;;8.50;99.90;;;;;;5028516;28;20049;-78
2022/11/20 12:14:13;;;;;;;2.13;0.82;;;8.60;99.90;;;;;;5028234;28;20022;-79
2022/11/20 12:16:39;;;;;;;3.50;1.10;;;8.60;99.90;;;;;;5025422;28;20046;-79
2022/11/20 12:19:11;;;;;;;3.80;1.20;;;8.60;99.90;;;;;;5032122;28;20037;-79
2022/11/20 12:21:46;;;;;;;1.55;0.80;;;8.70;99.90;;;;;;5030750;28;20034;-78
2022/11/20 12:24:38;;;;;;;1.60;0.70;;;8.70;99.90;;;;;;5024219;28;20034;-78
2022/11/20 12:27:13;;;;;;;1.40;0.80;;;8.60;99.90;;;;;;5029371;28;20021;-78
2022/11/20 12:29:48;;;;;;;2.25;0.60;;;8.60;99.90;;;;;;5029014;28;20086;-79
2022/11/20 12:32:52;;;;;;;1.02;0.60;;;8.60;99.90;;;;;;5035433;28;20029;-79
2022/11/20 12:35:36;;;;;;;2.25;0.68;;;8.50;99.90;;;;;;5027305;28;20478;-80
2022/11/20 12:38:17;;;;;;;2.05;0.73;;;8.50;99.90;;;;;;5032528;28;20049;-79
2022/11/20 12:41:04;;;;;;;1.73;1.20;;;8.40;99.90;;;;;;5030807;28;20033;-78
2022/11/20 12:46:51;;;;;;;2.00;0.85;;;8.40;99.90;;;;;;5026906;28;20032;-78
2022/11/20 12:49:25;;;;;;;2.55;0.70;;;8.40;99.90;;;;;;5025231;28;20034;-77
2022/11/20 12:51:51;;;;;;;2.42;1.10;;;8.30;99.90;;;;;;5024515;28;20108;-77
2022/11/20 12:54:53;;;;;;;2.33;0.98;;;8.30;99.90;;;;;;5032909;28;20060;-78
2022/11/20 12:57:26;;;;;;;1.90;1.23;;;8.30;99.90;;;;;;5015227;28;20482;-79
2022/11/20 12:59:55;;;;;;;2.30;1.00;;;8.20;99.90;;;;;;5025407;28;20033;-80
2022/11/20 13:02:42;;;;;;;2.70;0.82;;;8.20;99.90;;;;;;5032261;28;20028;-79
2022/11/20 13:05:19;;;;;;;1.83;0.88;;;8.10;99.90;;;;;;5030488;28;20029;-79
2022/11/20 13:07:46;;;;;;;2.08;1.10;;;8.10;99.90;;;;;;5025656;28;20025;-80
2022/11/20 13:10:24;;;;;;;2.35;0.82;;;8.10;99.90;;;;;;5029143;28;20038;-80
2022/11/20 13:13:21;;;;;;;3.40;0.90;;;8.10;99.90;;;;;;5030095;28;20026;-80
2022/11/20 13:16:10;;;;;;;1.85;0.90;;;8.10;99.90;;;;;;5031360;28;20048;-78
2022/11/20 13:18:42;;;;;;;2.45;1.20;;;8.10;99.90;;;;;;5025787;28;20171;-78
2022/11/20 13:21:34;;;;;;;2.65;0.93;;;8.20;99.90;;;;;;5029393;28;20067;-78
2022/11/20 13:24:07;;;;;;;2.95;1.00;;;8.20;99.90;;;;;;5027244;28;20035;-78
2022/11/20 13:26:34;;;;;;;1.92;1.13;;;8.20;99.90;;;;;;5034560;28;20490;-80
2022/11/20 13:29:11;;;;;;;2.42;1.10;;;8.20;99.90;;;;;;5030638;28;20037;-80
2022/11/20 13:31:42;;;;;;;4.68;1.33;;;8.30;99.90;;;;;;5034356;28;20037;-79
2022/11/20 13:34:24;;;;;;;7.50;1.33;;;8.30;99.90;;;;;;5027542;28;20172;-79
2022/11/20 13:36:51;;;;;;;2.72;1.20;;;8.30;99.90;;;;;;5024641;28;20041;-79